Bei Facebook empfehlenBei Twitter postenGoogle plusPinterest

Das Wetter im Erzgebirge am 10.09.2015

Wetter und Klima am 10.09.2015 Holzhau im Erzgebirge (630m ü.NN)
Letzte gemessene Temperatur und Uhrzeit der Messung23:45:00 Uhr6.20 °C
Temperatur (Maximum / Höchstwert) und Uhrzeit der Messung13:00:00 Uhr15.50 °C
Temperatur (Minimum / Tiefstwert) und Uhrzeit der Messung06:30:002.40 °C
Errechneter Absolutwert der Temperaturschwankungen zwischen Tmin und Tmax des Tages13.10 K
Errechnete Tagesmitteltemperatur8.53438 °C
Gesamt - Niederschlag des Tages (in flüssiger Form)0.51 Liter / m²
Luftdruck (Maximum / Höchstwert) und Zeitpunkt der Messung00:15:00 Uhr1020.60 hPa
Luftdruck (Minimum / Tiefstwert) und Zeitpunkt der Messung23:45:00 Uhr1017.70 hPa
Errechneter Absolutwert der Luftdruckschwankungen des Tages2.90 hPa
Höchste gemessene Windgeschwindigkeit und Uhrzeit der Messung11:15:00 Uhr12.24 km/h
Errechnete Windhäufigkeit in Relation zu den Messwerten des Tages23.95833 %
Niedrigste Windkühle (Windchill) und Zeitpunkt der Messung03:30:00 Uhr1.80 °C
Taupunkt (Maximum / Höchstwert) und Uhrzeit der Messung13:00:00 Uhr10.50 °C
Taupunkt (Minimum / Tiefstwert) und Uhrzeit der Messung06:30:001.20 °C
Anzahl der automatisch eingelesenen Messwerte 96

Detaillierte Wetter- und Klima- Messwerte für den 10.09.2015 in Holzhau im Erzgebirge (630m ü.NN)
ZeitTemperaturLuftdruckRel. LuftfeuchteWindWindrichtungWindchillTaupunktNiederschlag l/m²
23:45:006.20 °C1017.70 hPa89.00 %4.50 °C0.51
23:30:006.20 °C1017.70 hPa89.00 %4.50 °C0.51
23:15:006.30 °C1017.70 hPa89.00 %4.60 °C0.51
23:00:006.40 °C1017.90 hPa88.00 %4.60 °C0.51
22:45:006.70 °C1017.70 hPa88.00 %4.90 °C0.51
22:30:006.90 °C1017.70 hPa87.00 %4.90 °C0.51
22:15:007.10 °C1017.80 hPa87.00 %5.10 °C0.51
22:00:007.40 °C1017.80 hPa86.00 %5.20 °C0.51
21:45:008.00 °C1017.80 hPa86.00 %5.80 °C0.51
21:30:008.40 °C1018.00 hPa85.00 %6.00 °C0.51
21:15:008.80 °C1018.20 hPa84.00 %6.20 °C0.51
21:00:009.30 °C1018.40 hPa83.00 %2.16 km/hSO9.30 °C6.60 °C0.51
20:45:009.40 °C1018.30 hPa83.00 %6.70 °C 
20:30:009.10 °C1018.30 hPa82.00 %6.20 °C 
20:15:009.00 °C1018.70 hPa81.00 %5.90 °C 
20:00:009.30 °C1018.60 hPa80.00 %6.00 °C 
19:45:009.50 °C1018.40 hPa79.00 %6.00 °C 
19:30:009.80 °C1018.50 hPa78.00 %6.20 °C 
19:15:009.90 °C1018.50 hPa76.00 %5.90 °C 
19:00:0010.50 °C1018.50 hPa74.00 %6.10 °C 
18:45:0011.20 °C1018.50 hPa72.00 %6.30 °C 
18:30:0012.20 °C1018.50 hPa69.00 %6.70 °C 
18:15:0013.30 °C1018.10 hPa67.00 %7.30 °C 
18:00:0014.10 °C1018.20 hPa66.00 %7.90 °C 
17:45:0014.90 °C1018.30 hPa65.00 %8.40 °C 
17:30:0015.10 °C1018.20 hPa66.00 %8.80 °C 
17:15:0014.40 °C1018.20 hPa67.00 %8.40 °C 
17:00:0014.10 °C1018.40 hPa67.00 %8.10 °C 
16:45:0014.90 °C1018.50 hPa69.00 %8.28 km/hOSO14.70 °C9.30 °C 
16:30:0015.20 °C1018.50 hPa71.00 %2.16 km/hSO15.20 °C10.00 °C 
16:15:0013.90 °C1018.50 hPa76.00 %9.70 °C 
16:00:0013.00 °C1018.70 hPa75.00 %5.40 km/hOSO13.10 °C8.70 °C 
15:45:0012.80 °C1018.80 hPa76.00 %4.68 km/hSO12.80 °C8.70 °C 
15:30:0012.10 °C1019.00 hPa75.00 %7.80 °C 
15:15:0012.10 °C1019.20 hPa73.00 %2.16 km/hSO12.10 °C7.40 °C 
15:00:0013.10 °C1019.30 hPa70.00 %7.80 °C 
14:45:0013.60 °C1019.30 hPa70.00 %6.48 km/hSO13.50 °C8.20 °C 
14:30:0013.60 °C1019.20 hPa71.00 %8.40 °C 
14:15:0013.60 °C1019.20 hPa71.00 %8.40 °C 
14:00:0014.10 °C1019.30 hPa69.00 %3.96 km/hOSO14.10 °C8.50 °C 
13:45:0014.90 °C1019.20 hPa69.00 %9.30 °C 
13:30:0014.90 °C1019.30 hPa70.00 %2.52 km/hSO14.90 °C9.50 °C 
13:15:0015.30 °C1019.30 hPa69.00 %2.88 km/hONO15.30 °C9.70 °C 
13:00:0015.50 °C1019.50 hPa72.00 %10.50 °C 
12:45:0013.80 °C1019.40 hPa72.00 %8.80 °C 
12:30:0014.30 °C1019.50 hPa70.00 %8.90 °C 
12:15:0014.40 °C1019.60 hPa70.00 %9.00 °C 
12:00:0014.50 °C1019.70 hPa71.00 %4.32 km/hSSO14.50 °C9.30 °C 
11:45:0014.50 °C1019.70 hPa77.00 %2.88 km/hSSO14.50 °C10.50 °C 
11:30:0013.50 °C1019.90 hPa80.00 %10.10 °C 
11:15:0013.10 °C1020.10 hPa83.00 %12.24 km/hSSO12.00 °C10.30 °C 
11:00:0012.30 °C1019.60 hPa85.00 %4.32 km/hOSO12.30 °C9.90 °C 
10:45:0012.20 °C1019.70 hPa87.00 %10.10 °C 
10:30:0011.80 °C1019.80 hPa88.00 %9.90 °C 
10:15:0011.90 °C1019.70 hPa90.00 %10.30 °C 
10:00:0011.60 °C1019.70 hPa92.00 %3.24 km/hOSO11.60 °C10.30 °C 
09:45:0011.30 °C1019.70 hPa94.00 %10.40 °C 
09:30:0010.70 °C1019.70 hPa94.00 %10.80 km/hOSO9.30 °C9.80 °C 
09:15:009.40 °C1019.70 hPa94.00 %8.50 °C 
09:00:007.90 °C1019.70 hPa94.00 %7.00 °C 
08:45:006.90 °C1019.70 hPa94.00 %6.00 °C 
08:30:005.80 °C1019.70 hPa94.00 %4.90 °C 
08:15:004.90 °C1019.80 hPa94.00 %4.00 °C 
08:00:004.10 °C1020.00 hPa94.00 %3.20 °C 
07:45:003.30 °C1019.80 hPa93.00 %2.30 °C 
07:30:002.90 °C1020.10 hPa93.00 %1.90 °C 
07:15:002.80 °C1019.80 hPa93.00 %1.80 °C 
07:00:002.70 °C1019.90 hPa93.00 %4.32 km/hOSO2.70 °C1.70 °C 
06:45:002.60 °C1019.80 hPa92.00 %1.40 °C 
06:30:002.40 °C1020.00 hPa92.00 %2.88 km/hSO2.40 °C1.20 °C 
06:15:002.60 °C1019.60 hPa92.00 %1.40 °C 
06:00:002.70 °C1019.70 hPa93.00 %1.44 km/hSO2.70 °C1.70 °C 
05:45:002.80 °C1019.80 hPa93.00 %1.80 °C 
05:30:002.80 °C1019.80 hPa93.00 %1.08 km/hSO2.80 °C1.80 °C 
05:15:002.90 °C1019.70 hPa92.00 %1.70 °C 
05:00:002.80 °C1019.90 hPa92.00 %1.60 °C 
04:45:002.90 °C1019.70 hPa92.00 %3.24 km/hSO2.90 °C1.70 °C 
04:30:003.10 °C1019.70 hPa92.00 %1.80 km/hSO3.10 °C1.90 °C 
04:15:003.10 °C1019.80 hPa92.00 %1.90 °C 
04:00:003.30 °C1019.90 hPa92.00 %2.10 °C 
03:45:003.40 °C1019.80 hPa91.00 %2.10 °C 
03:30:003.60 °C1019.90 hPa91.00 %6.84 km/hOSO1.80 °C2.30 °C 
03:15:003.70 °C1019.90 hPa91.00 %2.40 °C 
03:00:003.60 °C1019.90 hPa91.00 %2.30 °C 
02:45:003.80 °C1020.10 hPa91.00 %2.50 °C 
02:30:003.60 °C1020.00 hPa91.00 %2.30 °C 
02:15:003.60 °C1020.00 hPa91.00 %2.30 °C 
02:00:003.80 °C1020.10 hPa91.00 %2.50 °C 
01:45:003.90 °C1020.20 hPa90.00 %2.40 °C 
01:30:003.90 °C1020.10 hPa90.00 %2.40 °C 
01:15:003.80 °C1020.10 hPa90.00 %2.30 °C 
01:00:003.60 °C1020.40 hPa90.00 %2.10 °C 
00:45:003.60 °C1020.30 hPa89.00 %2.00 °C 
00:30:003.50 °C1020.40 hPa89.00 %1.90 °C 
00:15:003.60 °C1020.60 hPa89.00 %2.00 °C 
00:00:003.60 °C1020.60 hPa89.00 %2.00 °C 

Permanenter Link zu dieser Seite: Wetter im Erzgebirge am 10.09.2015
Performance-Info: Die Erstellung der Seite / Statistik(en) / Tabelle(n) erforderte 5 Datenbankserver-Abfrage(n) und dauerte 101 Millisekunden. (Dieser Messwert ist von der Gesamt-Auslastung des Servers abhängig.)
Erzgebirge - Wetter | Erzgebirge - Wetter (Mobilgeräte) | Komplette Klimadatenbank